createdAt,value
2023-03-07T00:00:37.369Z,962.59
2023-03-07T00:01:37.357Z,962.60
2023-03-07T00:02:37.397Z,962.62
2023-03-07T00:03:37.367Z,962.66
2023-03-07T00:04:37.304Z,962.63
2023-03-07T00:05:37.305Z,962.64
2023-03-07T00:06:37.276Z,962.66
2023-03-07T00:07:37.259Z,962.64
2023-03-07T00:08:37.236Z,962.59
2023-03-07T00:09:37.225Z,962.57
2023-03-07T00:10:37.205Z,962.59
2023-03-07T00:11:37.214Z,962.61
2023-03-07T00:12:37.179Z,962.59
2023-03-07T00:13:37.162Z,962.57
2023-03-07T00:14:37.141Z,962.60
2023-03-07T00:15:37.126Z,962.64
2023-03-07T00:16:37.106Z,962.64
2023-03-07T00:17:37.094Z,962.69
2023-03-07T00:18:37.072Z,962.61
2023-03-07T00:19:37.064Z,962.67
2023-03-07T00:20:37.040Z,962.63
2023-03-07T00:21:37.046Z,962.62
2023-03-07T00:22:37.011Z,962.60
2023-03-07T00:23:36.996Z,962.60
2023-03-07T00:24:36.972Z,962.60
2023-03-07T00:25:36.965Z,962.58
2023-03-07T00:26:36.948Z,962.62
2023-03-07T00:27:36.952Z,962.59
2023-03-07T00:28:36.910Z,962.65
2023-03-07T00:29:36.896Z,962.62
2023-03-07T00:30:36.876Z,962.66
2023-03-07T00:31:36.911Z,962.64
2023-03-07T00:32:36.985Z,962.61
2023-03-07T00:33:36.834Z,962.62
2023-03-07T00:34:36.811Z,962.58
2023-03-07T00:35:36.817Z,962.58
2023-03-07T00:36:36.777Z,962.50
2023-03-07T00:37:36.766Z,962.54
2023-03-07T00:38:36.746Z,962.50
2023-03-07T00:39:36.732Z,962.49
2023-03-07T00:40:36.713Z,962.47
2023-03-07T00:41:36.701Z,962.41
2023-03-07T00:42:36.681Z,962.46
2023-03-07T00:43:36.694Z,962.42
2023-03-07T00:44:36.649Z,962.41
2023-03-07T00:45:36.658Z,962.38
2023-03-07T00:46:36.622Z,962.40
2023-03-07T00:47:36.602Z,962.34
2023-03-07T00:48:36.586Z,962.34
2023-03-07T00:49:36.569Z,962.35
2023-03-07T00:50:36.555Z,962.33
2023-03-07T00:51:36.538Z,962.30
2023-03-07T00:52:36.523Z,962.32
2023-03-07T00:53:36.511Z,962.26
2023-03-07T00:54:36.695Z,962.28
2023-03-07T00:55:36.478Z,962.29
2023-03-07T00:56:36.462Z,962.32
2023-03-07T00:57:36.441Z,962.33
2023-03-07T00:58:36.440Z,962.32
2023-03-07T00:59:36.429Z,962.33
2023-03-07T01:00:36.425Z,962.37
2023-03-07T01:01:36.373Z,962.33
2023-03-07T01:02:36.367Z,962.37
2023-03-07T01:03:36.351Z,962.36
2023-03-07T01:04:36.371Z,962.39
2023-03-07T01:05:36.308Z,962.42
2023-03-07T01:06:36.295Z,962.42
2023-03-07T01:07:36.280Z,962.40
2023-03-07T01:08:36.261Z,962.40
2023-03-07T01:09:36.242Z,962.39
2023-03-07T01:10:36.228Z,962.33
2023-03-07T01:11:36.221Z,962.35
2023-03-07T01:12:36.197Z,962.32
2023-03-07T01:13:36.176Z,962.34
2023-03-07T01:14:36.165Z,962.37
2023-03-07T01:15:36.165Z,962.36
2023-03-07T01:16:36.193Z,962.36
2023-03-07T01:17:36.118Z,962.38
2023-03-07T01:18:36.099Z,962.36
2023-03-07T01:19:36.079Z,962.35
2023-03-07T01:20:36.067Z,962.41
2023-03-07T01:21:36.050Z,962.39
2023-03-07T01:22:36.040Z,962.41
2023-03-07T01:23:36.014Z,962.43
2023-03-07T01:24:36.003Z,962.46
2023-03-07T01:25:35.982Z,962.45
2023-03-07T01:26:35.971Z,962.38
2023-03-07T01:27:35.950Z,962.40
2023-03-07T01:28:35.936Z,962.40
2023-03-07T01:29:35.917Z,962.45
2023-03-07T01:30:35.909Z,962.39
2023-03-07T01:31:36.016Z,962.37
2023-03-07T01:32:35.995Z,962.36
2023-03-07T01:33:35.854Z,962.36
2023-03-07T01:34:35.836Z,962.38
2023-03-07T01:35:35.855Z,962.41
2023-03-07T01:36:35.839Z,962.36
2023-03-07T01:37:35.786Z,962.39
2023-03-07T01:38:35.788Z,962.35
2023-03-07T01:39:35.775Z,962.31
2023-03-07T01:40:35.738Z,962.35
2023-03-07T01:41:35.724Z,962.32
2023-03-07T01:42:35.706Z,962.39
2023-03-07T01:43:35.692Z,962.35
2023-03-07T01:44:35.714Z,962.34
2023-03-07T01:45:35.688Z,962.32
2023-03-07T01:46:35.642Z,962.29
2023-03-07T01:47:35.644Z,962.23
2023-03-07T01:48:35.606Z,962.18
2023-03-07T01:49:35.645Z,962.23
2023-03-07T01:50:35.574Z,962.22
2023-03-07T01:51:35.556Z,962.20
2023-03-07T01:52:35.557Z,962.21
2023-03-07T01:53:35.521Z,962.20
2023-03-07T01:54:35.507Z,962.15
2023-03-07T01:55:35.486Z,962.12
2023-03-07T01:56:35.477Z,962.11
2023-03-07T01:57:35.485Z,962.09
2023-03-07T01:58:35.469Z,962.07
2023-03-07T01:59:35.430Z,962.09
2023-03-07T02:00:35.405Z,962.10
2023-03-07T02:01:35.430Z,962.10
2023-03-07T02:02:35.376Z,962.10
2023-03-07T02:03:35.382Z,962.10
2023-03-07T02:04:35.398Z,962.08
2023-03-07T02:05:35.320Z,962.10
2023-03-07T02:06:35.309Z,962.13
2023-03-07T02:07:35.287Z,962.13
2023-03-07T02:08:35.276Z,962.06
2023-03-07T02:09:35.255Z,962.05
2023-03-07T02:10:35.271Z,962.04
2023-03-07T02:11:35.233Z,962.09
2023-03-07T02:12:35.216Z,962.07
2023-03-07T02:13:35.188Z,962.07
2023-03-07T02:14:35.176Z,962.08
2023-03-07T02:15:35.239Z,962.10
2023-03-07T02:16:35.144Z,962.10
2023-03-07T02:17:35.130Z,962.09
2023-03-07T02:18:35.109Z,962.06
2023-03-07T02:19:35.111Z,962.10
2023-03-07T02:20:35.080Z,962.12
2023-03-07T02:21:35.058Z,962.07
2023-03-07T02:22:35.046Z,962.10
2023-03-07T02:23:35.022Z,962.08
2023-03-07T02:24:35.015Z,962.12
2023-03-07T02:25:34.991Z,962.13
2023-03-07T02:26:34.978Z,962.16
2023-03-07T02:27:34.958Z,962.14
2023-03-07T02:28:34.948Z,962.13
2023-03-07T02:29:34.929Z,962.15
2023-03-07T02:30:34.920Z,962.13
2023-03-07T02:31:34.895Z,962.12
2023-03-07T02:32:34.959Z,962.14
2023-03-07T02:33:34.873Z,962.09
2023-03-07T02:34:34.858Z,962.10
2023-03-07T02:35:34.878Z,962.06
2023-03-07T02:36:34.853Z,962.03
2023-03-07T02:37:34.804Z,962.00
2023-03-07T02:38:34.781Z,961.93
2023-03-07T02:39:34.761Z,961.94
2023-03-07T02:40:34.748Z,961.90
2023-03-07T02:41:34.733Z,961.91
2023-03-07T02:42:34.715Z,961.90
2023-03-07T02:43:34.696Z,961.89
2023-03-07T02:44:34.682Z,961.90
2023-03-07T02:45:34.663Z,961.89
2023-03-07T02:46:34.684Z,961.91
2023-03-07T02:47:34.637Z,961.93
2023-03-07T02:48:34.617Z,961.88
2023-03-07T02:49:34.602Z,961.86
2023-03-07T02:50:34.585Z,961.89
2023-03-07T02:51:34.610Z,961.90
2023-03-07T02:52:34.553Z,961.91
2023-03-07T02:53:34.531Z,961.90
2023-03-07T02:54:34.527Z,961.94
2023-03-07T02:55:34.497Z,961.97
2023-03-07T02:56:34.489Z,961.93
2023-03-07T02:57:34.470Z,961.92
2023-03-07T02:58:34.460Z,961.88
2023-03-07T02:59:34.432Z,961.86
2023-03-07T03:00:34.420Z,961.88
2023-03-07T03:01:34.413Z,961.86
2023-03-07T03:02:34.388Z,961.91
2023-03-07T03:03:34.368Z,961.94
2023-03-07T03:04:34.427Z,961.91
2023-03-07T03:05:34.339Z,961.91
2023-03-07T03:06:34.324Z,961.89
2023-03-07T03:07:34.324Z,961.87
2023-03-07T03:08:34.289Z,961.81
2023-03-07T03:09:34.272Z,961.82
2023-03-07T03:10:34.258Z,961.83
2023-03-07T03:11:34.238Z,961.84
2023-03-07T03:12:34.237Z,961.81
2023-03-07T03:13:34.206Z,961.80
2023-03-07T03:14:34.192Z,961.80
2023-03-07T03:15:34.172Z,961.79
2023-03-07T03:16:34.243Z,961.75
2023-03-07T03:17:34.149Z,961.70
2023-03-07T03:18:34.134Z,961.72
2023-03-07T03:19:34.108Z,961.67
2023-03-07T03:20:34.101Z,961.65
2023-03-07T03:21:34.077Z,961.63
2023-03-07T03:22:34.062Z,961.61
2023-03-07T03:23:34.060Z,961.64
2023-03-07T03:24:34.034Z,961.65
2023-03-07T03:25:34.010Z,961.67
2023-03-07T03:26:34.000Z,961.63
2023-03-07T03:27:33.975Z,961.60
2023-03-07T03:28:33.965Z,961.58
2023-03-07T03:29:33.943Z,961.57
2023-03-07T03:30:33.929Z,961.58
2023-03-07T03:31:34.037Z,961.55
2023-03-07T03:32:33.965Z,961.57
2023-03-07T03:33:33.874Z,961.57
2023-03-07T03:34:33.862Z,961.56
2023-03-07T03:35:33.906Z,961.57
2023-03-07T03:36:33.829Z,961.58
2023-03-07T03:37:33.810Z,961.57
2023-03-07T03:38:33.798Z,961.61
2023-03-07T03:39:33.796Z,961.56
2023-03-07T03:40:33.762Z,961.60
2023-03-07T03:41:33.743Z,961.55
2023-03-07T03:42:33.729Z,961.59
2023-03-07T03:43:33.708Z,961.61
2023-03-07T03:44:33.699Z,961.60
2023-03-07T03:45:33.677Z,961.59
2023-03-07T03:46:33.680Z,961.57
2023-03-07T03:47:33.642Z,961.57
2023-03-07T03:48:33.637Z,961.56
2023-03-07T03:49:33.610Z,961.49
2023-03-07T03:50:33.597Z,961.44
2023-03-07T03:51:33.575Z,961.44
2023-03-07T03:52:33.564Z,961.48
2023-03-07T03:53:33.543Z,961.47
2023-03-07T03:54:33.530Z,961.49
2023-03-07T03:55:33.575Z,961.48
2023-03-07T03:56:33.499Z,961.45
2023-03-07T03:57:33.489Z,961.42
2023-03-07T03:58:33.465Z,961.41
2023-03-07T03:59:33.456Z,961.45
2023-03-07T04:00:33.430Z,961.47
2023-03-07T04:01:33.412Z,961.42
2023-03-07T04:02:33.566Z,961.41
2023-03-07T04:03:33.385Z,961.41
2023-03-07T04:04:33.365Z,961.41
2023-03-07T04:05:33.343Z,961.43
2023-03-07T04:06:33.330Z,961.40
2023-03-07T04:07:33.313Z,961.36
2023-03-07T04:08:33.315Z,961.39
2023-03-07T04:09:33.291Z,961.37
2023-03-07T04:10:33.268Z,961.41
2023-03-07T04:11:33.361Z,961.38
2023-03-07T04:12:33.229Z,961.37
2023-03-07T04:13:33.210Z,961.30
2023-03-07T04:14:33.196Z,961.32
2023-03-07T04:15:33.174Z,961.35
2023-03-07T04:16:33.211Z,961.28
2023-03-07T04:17:33.144Z,961.27
2023-03-07T04:18:33.133Z,961.21
2023-03-07T04:19:33.112Z,961.18
2023-03-07T04:20:33.094Z,961.19
2023-03-07T04:21:33.078Z,961.21
2023-03-07T04:22:33.062Z,961.20
2023-03-07T04:23:33.043Z,961.17
2023-03-07T04:24:33.029Z,961.16
2023-03-07T04:25:33.049Z,961.11
2023-03-07T04:26:32.994Z,961.08
2023-03-07T04:27:32.996Z,961.11
2023-03-07T04:28:32.960Z,961.11
2023-03-07T04:29:32.941Z,961.12
2023-03-07T04:30:32.928Z,961.10
2023-03-07T04:31:32.962Z,961.10
2023-03-07T04:32:32.976Z,961.07
2023-03-07T04:33:32.874Z,961.05
2023-03-07T04:34:32.890Z,961.07
2023-03-07T04:35:32.913Z,961.10
2023-03-07T04:36:32.827Z,961.07
2023-03-07T04:37:32.807Z,961.06
2023-03-07T04:38:32.793Z,961.04
2023-03-07T04:39:32.772Z,961.01
2023-03-07T04:40:32.759Z,961.05
2023-03-07T04:41:32.760Z,961.02
2023-03-07T04:42:32.741Z,960.98
2023-03-07T04:43:32.834Z,960.96
2023-03-07T04:44:32.694Z,960.92
2023-03-07T04:45:32.678Z,960.88
2023-03-07T04:46:32.687Z,960.89
2023-03-07T04:47:32.641Z,960.89
2023-03-07T04:48:32.626Z,960.87
2023-03-07T04:49:32.609Z,960.89
2023-03-07T04:50:32.601Z,960.84
2023-03-07T04:51:32.576Z,960.85
2023-03-07T04:52:32.563Z,960.89
2023-03-07T04:53:32.542Z,960.84
2023-03-07T04:54:32.565Z,960.82
2023-03-07T04:55:32.508Z,960.86
2023-03-07T04:56:32.493Z,960.84
2023-03-07T04:57:32.485Z,960.84
2023-03-07T04:58:32.461Z,960.84
2023-03-07T04:59:32.470Z,960.86
2023-03-07T05:00:32.426Z,960.84
2023-03-07T05:01:32.435Z,960.86
2023-03-07T05:02:32.394Z,960.82
2023-03-07T05:03:32.375Z,960.81
2023-03-07T05:04:32.401Z,960.80
2023-03-07T05:05:32.344Z,960.78
2023-03-07T05:06:32.340Z,960.74
2023-03-07T05:07:32.316Z,960.71
2023-03-07T05:08:32.303Z,960.73
2023-03-07T05:09:32.277Z,960.74
2023-03-07T05:10:32.261Z,960.76
2023-03-07T05:11:32.247Z,960.73
2023-03-07T05:12:32.235Z,960.79
2023-03-07T05:13:32.223Z,960.73
2023-03-07T05:14:32.216Z,960.71
2023-03-07T05:15:32.258Z,960.78
2023-03-07T05:16:32.171Z,960.74
2023-03-07T05:17:32.181Z,960.71
2023-03-07T05:18:32.124Z,960.70
2023-03-07T05:19:32.108Z,960.74
2023-03-07T05:20:32.087Z,960.77
2023-03-07T05:21:32.083Z,960.76
2023-03-07T05:22:32.055Z,960.73
2023-03-07T05:23:32.058Z,960.73
2023-03-07T05:24:32.043Z,960.76
2023-03-07T05:25:32.007Z,960.75
2023-03-07T05:26:31.988Z,960.74
2023-03-07T05:27:31.975Z,960.76
2023-03-07T05:28:31.956Z,960.73
2023-03-07T05:29:31.940Z,960.71
2023-03-07T05:30:31.926Z,960.70
2023-03-07T05:31:32.023Z,960.68
2023-03-07T05:32:31.925Z,960.66
2023-03-07T05:33:31.883Z,960.66
2023-03-07T05:34:31.878Z,960.70
2023-03-07T05:35:31.888Z,960.65
2023-03-07T05:36:31.825Z,960.66
2023-03-07T05:37:31.818Z,960.67
2023-03-07T05:38:31.787Z,960.63
2023-03-07T05:39:31.772Z,960.58
2023-03-07T05:40:31.753Z,960.57
2023-03-07T05:41:31.738Z,960.57
2023-03-07T05:42:31.720Z,960.54
2023-03-07T05:43:31.705Z,960.51
2023-03-07T05:44:33.774Z,960.49
2023-03-07T05:45:31.672Z,960.54
2023-03-07T05:46:31.686Z,960.49
2023-03-07T05:47:31.673Z,960.51
2023-03-07T05:48:31.625Z,960.52
2023-03-07T05:49:31.616Z,960.53
2023-03-07T05:50:31.596Z,960.52
2023-03-07T05:51:31.573Z,960.49
2023-03-07T05:52:31.574Z,960.49
2023-03-07T05:53:31.546Z,960.47
2023-03-07T05:54:31.519Z,960.49
2023-03-07T05:55:31.506Z,960.47
2023-03-07T05:56:31.489Z,960.46
2023-03-07T05:57:31.474Z,960.48
2023-03-07T05:58:31.454Z,960.51
2023-03-07T05:59:31.437Z,960.49
2023-03-07T06:00:31.418Z,960.47
2023-03-07T06:01:31.405Z,960.48
2023-03-07T06:02:31.443Z,960.48
2023-03-07T06:03:31.514Z,960.49
2023-03-07T06:04:31.352Z,960.44
2023-03-07T06:05:31.349Z,960.46
2023-03-07T06:06:31.326Z,960.48
2023-03-07T06:07:31.305Z,960.48
2023-03-07T06:08:31.293Z,960.48
2023-03-07T06:09:31.275Z,960.43
2023-03-07T06:10:31.255Z,960.45
2023-03-07T06:11:31.237Z,960.50
2023-03-07T06:12:31.228Z,960.47
2023-03-07T06:13:31.209Z,960.41
2023-03-07T06:14:31.199Z,960.46
2023-03-07T06:15:31.176Z,960.46
2023-03-07T06:16:31.151Z,960.41
2023-03-07T06:17:31.137Z,960.39
2023-03-07T06:18:31.119Z,960.40
2023-03-07T06:19:31.124Z,960.35
2023-03-07T06:20:31.088Z,960.31
2023-03-07T06:21:31.069Z,960.37
2023-03-07T06:22:31.053Z,960.33
2023-03-07T06:23:31.036Z,960.30
2023-03-07T06:24:31.019Z,960.26
2023-03-07T06:25:31.010Z,960.23
2023-03-07T06:26:30.983Z,960.28
2023-03-07T06:27:30.970Z,960.30
2023-03-07T06:28:32.815Z,960.27
2023-03-07T06:29:30.939Z,960.27
2023-03-07T06:30:30.920Z,960.25
2023-03-07T06:31:31.008Z,960.29
2023-03-07T06:32:30.980Z,960.31
2023-03-07T06:33:30.874Z,960.30
2023-03-07T06:34:30.852Z,960.38
2023-03-07T06:35:30.961Z,960.33
2023-03-07T06:36:30.821Z,960.35
2023-03-07T06:37:30.804Z,960.35
2023-03-07T06:38:30.784Z,960.36
2023-03-07T06:39:31.468Z,960.35
2023-03-07T06:40:30.754Z,960.35
2023-03-07T06:41:30.747Z,960.32
2023-03-07T06:42:30.720Z,960.36
2023-03-07T06:43:30.706Z,960.39
2023-03-07T06:44:30.683Z,960.34
2023-03-07T06:45:30.713Z,960.42
2023-03-07T06:46:30.652Z,960.42
2023-03-07T06:47:30.644Z,960.37
2023-03-07T06:48:30.626Z,960.35
2023-03-07T06:49:30.618Z,960.40
2023-03-07T06:50:35.563Z,960.40
2023-03-07T06:51:30.599Z,960.40
2023-03-07T06:52:30.555Z,960.38
2023-03-07T06:53:30.544Z,960.42
2023-03-07T06:54:30.519Z,960.42
2023-03-07T06:55:30.505Z,960.42
2023-03-07T06:56:30.489Z,960.52
2023-03-07T06:57:30.477Z,960.48
2023-03-07T06:58:30.452Z,960.47
2023-03-07T06:59:30.441Z,960.45
2023-03-07T07:00:30.418Z,960.45
2023-03-07T07:01:30.406Z,960.42
2023-03-07T07:02:30.549Z,960.46
2023-03-07T07:03:30.383Z,960.41
2023-03-07T07:04:30.361Z,960.40
2023-03-07T07:05:30.341Z,960.41
2023-03-07T07:06:30.318Z,960.39
2023-03-07T07:07:30.329Z,960.41
2023-03-07T07:08:30.285Z,960.44
2023-03-07T07:09:30.275Z,960.40
2023-03-07T07:10:30.269Z,960.42
2023-03-07T07:11:30.239Z,960.41
2023-03-07T07:12:30.220Z,960.37
2023-03-07T07:13:30.207Z,960.36
2023-03-07T07:14:30.192Z,960.43
2023-03-07T07:15:30.172Z,960.39
2023-03-07T07:16:30.227Z,960.36
2023-03-07T07:17:30.139Z,960.34
2023-03-07T07:18:30.120Z,960.33
2023-03-07T07:19:30.108Z,960.34
2023-03-07T07:20:30.102Z,960.34
2023-03-07T07:21:30.073Z,960.29
2023-03-07T07:22:30.059Z,960.27
2023-03-07T07:23:30.072Z,960.26
2023-03-07T07:24:30.038Z,960.29
2023-03-07T07:25:30.010Z,960.31
2023-03-07T07:26:29.991Z,960.30
2023-03-07T07:27:30.013Z,960.30
2023-03-07T07:28:29.957Z,960.26
2023-03-07T07:29:29.942Z,960.25
2023-03-07T07:30:29.922Z,960.29
2023-03-07T07:31:29.950Z,960.31
2023-03-07T07:32:30.070Z,960.28
2023-03-07T07:33:29.912Z,960.27
2023-03-07T07:34:29.857Z,960.30
2023-03-07T07:35:29.854Z,960.30
2023-03-07T07:36:29.835Z,960.31
2023-03-07T07:37:29.813Z,960.26
2023-03-07T07:38:29.793Z,960.27
2023-03-07T07:39:29.810Z,960.34
2023-03-07T07:40:29.763Z,960.34
2023-03-07T07:41:29.757Z,960.33
2023-03-07T07:42:32.099Z,960.33
2023-03-07T07:43:29.724Z,960.25
2023-03-07T07:44:29.698Z,960.28
2023-03-07T07:45:29.692Z,960.26
2023-03-07T07:46:29.666Z,960.30
2023-03-07T07:47:29.653Z,960.33
2023-03-07T07:48:29.636Z,960.30
2023-03-07T07:49:29.624Z,960.30
2023-03-07T07:50:29.606Z,960.32
2023-03-07T07:51:29.591Z,960.33
2023-03-07T07:52:29.573Z,960.33
2023-03-07T07:53:29.559Z,960.32
2023-03-07T07:54:29.546Z,960.25
2023-03-07T07:55:29.563Z,960.29
2023-03-07T07:56:29.508Z,960.30
2023-03-07T07:57:29.502Z,960.31
2023-03-07T07:58:29.490Z,960.30
2023-03-07T07:59:29.464Z,960.32
2023-03-07T08:00:29.444Z,960.29
2023-03-07T08:01:29.434Z,960.29
2023-03-07T08:02:29.460Z,960.29
2023-03-07T08:03:29.416Z,960.25
2023-03-07T08:04:29.381Z,960.28
2023-03-07T08:05:29.372Z,960.27
2023-03-07T08:06:29.354Z,960.26
2023-03-07T08:07:29.339Z,960.28
2023-03-07T08:08:29.328Z,960.26
2023-03-07T08:09:29.304Z,960.23
2023-03-07T08:10:29.291Z,960.22
2023-03-07T08:11:29.296Z,960.22
2023-03-07T08:12:29.257Z,960.20
2023-03-07T08:13:29.244Z,960.24
2023-03-07T08:14:29.236Z,960.23
2023-03-07T08:15:29.339Z,960.19
2023-03-07T08:16:29.194Z,960.21
2023-03-07T08:17:29.181Z,960.23
2023-03-07T08:18:29.167Z,960.24
2023-03-07T08:19:29.151Z,960.22
2023-03-07T08:20:29.130Z,960.20
2023-03-07T08:21:29.121Z,960.22
2023-03-07T08:22:29.107Z,960.18
2023-03-07T08:23:29.089Z,960.15
2023-03-07T08:24:39.896Z,960.20
2023-03-07T08:25:29.058Z,960.18
2023-03-07T08:26:29.048Z,960.15
2023-03-07T08:27:29.050Z,960.16
2023-03-07T08:28:29.008Z,960.22
2023-03-07T08:29:28.995Z,960.23
2023-03-07T08:30:28.976Z,960.22
2023-03-07T08:31:29.038Z,960.30
2023-03-07T08:32:28.977Z,960.27
2023-03-07T08:33:28.938Z,960.28
2023-03-07T08:34:28.920Z,960.27
2023-03-07T08:35:28.973Z,960.29
2023-03-07T08:36:28.885Z,960.27
2023-03-07T08:37:28.877Z,960.31
2023-03-07T08:38:28.855Z,960.32
2023-03-07T08:39:28.843Z,960.28
2023-03-07T08:40:28.824Z,960.27
2023-03-07T08:41:28.819Z,960.25
2023-03-07T08:42:28.872Z,960.22
2023-03-07T08:43:28.803Z,960.18
2023-03-07T08:44:28.764Z,960.18
2023-03-07T08:45:28.756Z,960.23
2023-03-07T08:46:28.763Z,960.18
2023-03-07T08:47:28.722Z,960.14
2023-03-07T08:48:28.699Z,960.21
2023-03-07T08:49:28.688Z,960.20
2023-03-07T08:50:28.677Z,960.22
2023-03-07T08:51:28.659Z,960.23
2023-03-07T08:52:28.643Z,960.20
2023-03-07T08:53:28.626Z,960.19
2023-03-07T08:54:28.607Z,960.18
2023-03-07T08:55:28.594Z,960.18
2023-03-07T08:56:28.576Z,960.12
2023-03-07T08:57:28.563Z,960.09
2023-03-07T08:58:28.553Z,960.06
2023-03-07T08:59:28.568Z,960.03
2023-03-07T09:00:28.515Z,960.07
2023-03-07T09:01:28.560Z,960.07
2023-03-07T09:02:28.492Z,960.04
2023-03-07T09:03:28.479Z,960.04
2023-03-07T09:04:28.496Z,959.99
2023-03-07T09:05:28.451Z,959.97
2023-03-07T09:06:28.425Z,959.90
2023-03-07T09:07:28.416Z,959.93
2023-03-07T09:08:28.397Z,959.94
2023-03-07T09:09:28.392Z,959.97
2023-03-07T09:10:28.368Z,959.94
2023-03-07T09:11:28.364Z,959.95
2023-03-07T09:12:28.336Z,959.91
2023-03-07T09:13:28.326Z,959.95
2023-03-07T09:14:28.310Z,959.95
2023-03-07T09:15:28.420Z,959.96
2023-03-07T09:16:28.302Z,959.91
2023-03-07T09:17:28.266Z,959.92
2023-03-07T09:18:30.281Z,959.91
2023-03-07T09:19:28.240Z,959.92
2023-03-07T09:20:28.228Z,959.89
2023-03-07T09:21:28.209Z,959.91
2023-03-07T09:22:28.197Z,959.83
2023-03-07T09:23:28.179Z,959.83
2023-03-07T09:24:28.168Z,959.84
2023-03-07T09:25:28.152Z,959.86
2023-03-07T09:26:28.141Z,959.82
2023-03-07T09:27:28.124Z,959.80
2023-03-07T09:28:28.113Z,959.80
2023-03-07T09:29:28.115Z,959.82
2023-03-07T09:30:28.092Z,959.84
2023-03-07T09:31:28.141Z,959.80
2023-03-07T09:32:28.085Z,959.78
2023-03-07T09:33:28.041Z,959.83
2023-03-07T09:34:28.027Z,959.77
2023-03-07T09:35:28.015Z,959.73
2023-03-07T09:36:28.010Z,959.72
2023-03-07T09:37:27.983Z,959.70
2023-03-07T09:38:27.969Z,959.68
2023-03-07T09:39:27.955Z,959.61
2023-03-07T09:40:27.945Z,959.57
2023-03-07T09:41:27.925Z,959.59
2023-03-07T09:42:27.926Z,959.61
2023-03-07T09:43:27.894Z,959.60
2023-03-07T09:44:27.884Z,959.59
2023-03-07T09:45:27.927Z,959.54
2023-03-07T09:46:27.857Z,959.51
2023-03-07T09:47:27.857Z,959.46
2023-03-07T09:48:27.828Z,959.51
2023-03-07T09:49:27.812Z,959.51
2023-03-07T09:50:27.806Z,959.46
2023-03-07T09:51:27.784Z,959.43
2023-03-07T09:52:27.773Z,959.43
2023-03-07T09:53:27.756Z,959.40
2023-03-07T09:54:27.748Z,959.39
2023-03-07T09:55:27.729Z,959.35
2023-03-07T09:56:27.719Z,959.35
2023-03-07T09:57:27.709Z,959.31
2023-03-07T09:58:27.691Z,959.34
2023-03-07T09:59:27.672Z,959.38
2023-03-07T10:00:27.664Z,959.38
2023-03-07T10:01:27.647Z,959.34
2023-03-07T10:02:27.640Z,959.24
2023-03-07T10:03:27.705Z,959.23
2023-03-07T10:04:27.696Z,959.29
2023-03-07T10:05:27.601Z,959.19
2023-03-07T10:06:27.590Z,959.16
2023-03-07T10:07:27.572Z,959.16
2023-03-07T10:08:27.554Z,959.18
2023-03-07T10:09:27.587Z,959.17
2023-03-07T10:10:27.527Z,959.15
2023-03-07T10:11:27.540Z,959.14
2023-03-07T10:12:27.500Z,959.07
2023-03-07T10:13:27.486Z,959.04
2023-03-07T10:14:27.492Z,959.04
2023-03-07T10:15:27.511Z,959.05
2023-03-07T10:16:27.531Z,958.97
2023-03-07T10:17:27.430Z,959.00
2023-03-07T10:18:27.432Z,958.99
2023-03-07T10:19:27.463Z,958.95
2023-03-07T10:20:27.394Z,958.90
2023-03-07T10:21:27.382Z,958.86
2023-03-07T10:22:27.368Z,958.85
2023-03-07T10:23:27.351Z,958.77
2023-03-07T10:24:27.342Z,958.80
2023-03-07T10:25:27.323Z,958.78
2023-03-07T10:26:27.313Z,958.75
2023-03-07T10:27:27.304Z,958.77
2023-03-07T10:28:27.292Z,958.79
2023-03-07T10:30:27.256Z,958.77
2023-03-07T10:31:27.302Z,958.73
2023-03-07T10:32:27.361Z,958.73
2023-03-07T10:33:27.218Z,958.68
2023-03-07T10:34:27.865Z,958.69
2023-03-07T10:35:27.215Z,958.71
2023-03-07T10:36:27.174Z,958.68
2023-03-07T10:37:27.164Z,958.71
2023-03-07T10:38:27.145Z,958.71
2023-03-07T10:39:27.139Z,958.70
2023-03-07T10:40:27.120Z,958.69
2023-03-07T10:41:27.115Z,958.71
2023-03-07T10:42:27.104Z,958.71
2023-03-07T10:43:27.093Z,958.64
2023-03-07T10:44:27.066Z,958.60
2023-03-07T10:45:27.057Z,958.61
2023-03-07T10:46:27.540Z,958.58
2023-03-07T10:47:27.055Z,958.48
2023-03-07T10:48:27.015Z,958.50
2023-03-07T10:49:27.005Z,958.55
2023-03-07T10:50:27.000Z,958.54
2023-03-07T10:51:27.009Z,958.56
2023-03-07T10:52:26.962Z,958.61
2023-03-07T10:53:26.951Z,958.62
2023-03-07T10:54:29.752Z,958.61
2023-03-07T10:55:26.937Z,958.52
2023-03-07T10:56:26.917Z,958.53
2023-03-07T10:57:26.902Z,958.48
2023-03-07T10:58:26.889Z,958.47
2023-03-07T10:59:26.873Z,958.47
2023-03-07T11:00:26.856Z,958.52
2023-03-07T11:01:26.916Z,958.53
2023-03-07T11:02:26.831Z,958.47
2023-03-07T11:03:26.821Z,958.49
2023-03-07T11:04:26.871Z,958.51
2023-03-07T11:05:26.804Z,958.49
2023-03-07T11:06:26.779Z,958.44
2023-03-07T11:07:26.794Z,958.26
2023-03-07T11:08:26.755Z,958.33
2023-03-07T11:09:26.777Z,958.37
2023-03-07T11:10:26.728Z,958.39
2023-03-07T11:11:26.721Z,958.41
2023-03-07T11:12:26.711Z,958.41
2023-03-07T11:14:26.683Z,958.40
2023-03-07T11:15:26.667Z,958.42
2023-03-07T11:16:26.729Z,958.47
2023-03-07T11:17:26.644Z,958.46
2023-03-07T11:18:26.640Z,958.42
2023-03-07T11:19:26.620Z,958.51
2023-03-07T11:20:29.169Z,958.42
2023-03-07T11:21:26.596Z,958.45
2023-03-07T11:22:26.584Z,958.42
2023-03-07T11:23:26.593Z,958.47
2023-03-07T11:24:26.594Z,958.58
2023-03-07T11:25:26.582Z,958.53
2023-03-07T11:26:28.946Z,958.43
2023-03-07T11:27:26.518Z,958.60
2023-03-07T11:28:26.508Z,958.43
2023-03-07T11:29:26.496Z,958.41
2023-03-07T11:30:26.487Z,958.39
2023-03-07T11:31:26.603Z,958.39
2023-03-07T11:32:26.494Z,958.40
2023-03-07T11:33:26.457Z,958.39
2023-03-07T11:34:26.434Z,958.37
2023-03-07T11:35:26.417Z,958.38
2023-03-07T11:36:26.410Z,958.38
2023-03-07T11:37:26.392Z,958.36
2023-03-07T11:38:26.394Z,958.40
2023-03-07T11:39:26.396Z,958.41
2023-03-07T11:40:26.391Z,958.32
2023-03-07T11:41:26.372Z,958.18
2023-03-07T11:42:26.339Z,958.20
2023-03-07T11:43:26.315Z,958.20
2023-03-07T11:44:26.304Z,958.25
2023-03-07T11:45:26.304Z,958.23
2023-03-07T11:46:26.314Z,958.15
2023-03-07T11:47:26.261Z,958.19
2023-03-07T11:48:26.253Z,958.17
2023-03-07T11:49:26.235Z,958.25
2023-03-07T11:50:26.233Z,958.21
2023-03-07T11:51:26.206Z,958.26
2023-03-07T11:52:26.216Z,958.24
2023-03-07T11:53:26.197Z,958.25
2023-03-07T11:54:26.171Z,958.25
2023-03-07T11:55:26.174Z,958.22
2023-03-07T11:56:26.170Z,958.02
2023-03-07T11:57:26.133Z,957.99
2023-03-07T11:58:26.131Z,957.97
2023-03-07T12:00:26.096Z,957.93
2023-03-07T12:01:26.080Z,958.07
2023-03-07T12:02:26.070Z,957.99
2023-03-07T12:03:26.054Z,958.01
2023-03-07T12:04:26.037Z,957.92
2023-03-07T12:05:26.065Z,957.95
2023-03-07T12:06:26.010Z,957.92
2023-03-07T12:07:26.001Z,957.95
2023-03-07T12:08:25.983Z,957.92
2023-03-07T12:09:25.974Z,957.90
2023-03-07T12:10:25.958Z,957.96
2023-03-07T12:11:26.006Z,957.86
2023-03-07T12:12:25.932Z,957.89
2023-03-07T12:13:25.925Z,957.83
2023-03-07T12:14:25.911Z,957.83
2023-03-07T12:15:25.897Z,957.85
2023-03-07T12:16:25.948Z,957.92
2023-03-07T12:17:25.872Z,957.91
2023-03-07T12:18:25.868Z,957.87
2023-03-07T12:19:25.840Z,957.91
2023-03-07T12:20:25.826Z,957.80
2023-03-07T12:21:25.812Z,957.73
2023-03-07T12:22:25.798Z,957.73
2023-03-07T12:23:25.792Z,957.79
2023-03-07T12:24:25.770Z,957.69
2023-03-07T12:25:25.759Z,957.82
2023-03-07T12:26:25.743Z,957.78
2023-03-07T12:27:26.823Z,957.85
2023-03-07T12:28:25.737Z,957.77
2023-03-07T12:29:25.707Z,957.76
2023-03-07T12:30:25.688Z,957.82
2023-03-07T12:31:25.715Z,957.73